createdAt,value
2023-01-03T00:00:39.014Z,89.54
2023-01-03T00:03:06.681Z,89.65
2023-01-03T00:05:35.404Z,89.89
2023-01-03T00:08:04.488Z,89.80
2023-01-03T00:10:32.329Z,90.29
2023-01-03T00:13:00.182Z,90.00
2023-01-03T00:15:28.162Z,90.53
2023-01-03T00:17:56.508Z,90.16
2023-01-03T00:20:24.236Z,90.62
2023-01-03T00:22:51.963Z,90.36
2023-01-03T00:25:21.162Z,91.10
2023-01-03T00:27:48.976Z,91.26
2023-01-03T00:30:16.939Z,91.08
2023-01-03T00:32:44.662Z,91.54
2023-01-03T00:35:12.366Z,91.25
2023-01-03T00:37:40.148Z,91.48
2023-01-03T00:40:08.611Z,91.16
2023-01-03T00:42:58.330Z,91.13
2023-01-03T00:45:26.881Z,91.44
2023-01-03T00:47:55.734Z,91.27
2023-01-03T00:50:23.340Z,91.49
2023-01-03T00:52:50.894Z,91.72
2023-01-03T00:55:18.492Z,91.42
2023-01-03T00:57:47.363Z,91.32
2023-01-03T01:00:15.569Z,91.18
2023-01-03T01:02:43.402Z,91.30
2023-01-03T01:05:11.159Z,91.19
2023-01-03T01:07:38.697Z,91.13
2023-01-03T01:10:07.175Z,90.53
2023-01-03T01:12:34.916Z,90.57
2023-01-03T01:15:05.323Z,90.67
2023-01-03T01:17:34.067Z,90.98
2023-01-03T01:20:01.635Z,90.67
2023-01-03T01:22:29.242Z,90.43
2023-01-03T01:24:56.883Z,90.49
2023-01-03T01:27:24.494Z,91.40
2023-01-03T01:29:52.020Z,90.98
2023-01-03T01:32:21.541Z,91.50
2023-01-03T01:34:49.200Z,90.96
2023-01-03T01:37:16.769Z,91.43
2023-01-03T01:39:44.450Z,91.94
2023-01-03T01:42:31.901Z,92.03
2023-01-03T01:45:00.699Z,91.79
2023-01-03T01:47:37.364Z,92.39
2023-01-03T01:50:13.625Z,92.74
2023-01-03T01:52:46.259Z,92.40
2023-01-03T01:55:16.981Z,92.33
2023-01-03T01:57:45.705Z,92.63
2023-01-03T02:00:14.633Z,93.27
2023-01-03T02:02:50.428Z,92.90
2023-01-03T02:05:20.198Z,92.97
2023-01-03T02:07:50.479Z,92.88
2023-01-03T02:10:19.828Z,93.32
2023-01-03T02:13:10.083Z,93.09
2023-01-03T02:16:04.560Z,93.50
2023-01-03T02:18:47.239Z,93.55
2023-01-03T02:21:37.043Z,94.43
2023-01-03T02:24:31.153Z,94.28
2023-01-03T02:27:06.050Z,94.30
2023-01-03T02:30:05.585Z,94.78
2023-01-03T02:32:43.217Z,95.11
2023-01-03T02:35:19.876Z,95.13
2023-01-03T02:37:56.239Z,95.29
2023-01-03T02:40:30.139Z,95.75
2023-01-03T02:43:05.772Z,95.98
2023-01-03T02:45:49.970Z,96.12
2023-01-03T02:48:31.168Z,96.21
2023-01-03T02:51:01.719Z,96.45
2023-01-03T02:53:34.285Z,96.76
2023-01-03T02:56:07.208Z,96.78
2023-01-03T02:58:38.005Z,97.08
2023-01-03T03:01:08.302Z,97.20
2023-01-03T03:03:39.895Z,97.28
2023-01-03T03:06:15.158Z,97.61
2023-01-03T03:08:45.379Z,97.62
2023-01-03T03:11:27.752Z,97.79
2023-01-03T03:14:00.962Z,97.82
2023-01-03T03:16:50.217Z,98.44
2023-01-03T03:19:46.311Z,98.94
2023-01-03T03:22:41.413Z,98.80
2023-01-03T03:25:13.356Z,98.35
2023-01-03T03:28:01.766Z,98.82
2023-01-03T03:30:33.237Z,98.11
2023-01-03T03:33:06.128Z,98.31
2023-01-03T03:35:42.435Z,98.46
2023-01-03T03:38:15.040Z,98.12
2023-01-03T03:41:15.981Z,98.43
2023-01-03T03:44:06.834Z,98.06
2023-01-03T03:46:42.236Z,98.47
2023-01-03T03:49:31.671Z,99.33
2023-01-03T03:52:03.092Z,99.23
2023-01-03T03:54:35.249Z,99.84
2023-01-03T03:57:11.592Z,99.05
2023-01-03T03:59:42.494Z,99.35
2023-01-03T04:02:12.301Z,99.04
2023-01-03T04:04:45.446Z,99.18
2023-01-03T04:07:14.481Z,99.57
2023-01-03T04:09:42.146Z,99.78
2023-01-03T04:12:09.685Z,100.00
2023-01-03T04:14:37.239Z,99.80
2023-01-03T04:17:04.781Z,99.77
2023-01-03T04:19:32.308Z,99.50
2023-01-03T04:21:59.850Z,99.24
2023-01-03T04:24:28.732Z,99.26
2023-01-03T04:26:56.324Z,99.14
2023-01-03T04:29:23.938Z,100.00
2023-01-03T04:31:51.513Z,99.83
2023-01-03T04:34:19.133Z,100.00
2023-01-03T04:36:46.725Z,99.92
2023-01-03T04:39:14.496Z,99.55
2023-01-03T04:41:43.397Z,100.00
2023-01-03T04:44:11.086Z,98.94
2023-01-03T04:46:40.603Z,99.73
2023-01-03T04:49:10.575Z,99.70
2023-01-03T04:51:38.448Z,100.00
2023-01-03T04:54:07.332Z,100.00
2023-01-03T04:56:37.220Z,100.00
2023-01-03T04:59:06.851Z,100.00
2023-01-03T05:01:34.815Z,99.79
2023-01-03T05:04:02.904Z,100.00
2023-01-03T05:06:30.775Z,100.00
2023-01-03T05:08:58.371Z,99.88
2023-01-03T05:11:25.989Z,100.00
2023-01-03T05:13:53.492Z,100.00
2023-01-03T05:16:22.490Z,100.00
2023-01-03T05:18:53.226Z,100.00
2023-01-03T05:21:40.261Z,100.00
2023-01-03T05:24:28.669Z,100.00
2023-01-03T05:26:58.144Z,100.00
2023-01-03T05:29:26.826Z,100.00
2023-01-03T05:31:56.123Z,100.00
2023-01-03T05:34:23.754Z,100.00
2023-01-03T05:36:51.306Z,100.00
2023-01-03T05:39:18.854Z,99.59
2023-01-03T05:42:02.581Z,99.56
2023-01-03T05:44:32.456Z,99.96
2023-01-03T05:47:02.504Z,100.00
2023-01-03T05:49:30.174Z,99.69
2023-01-03T05:51:57.809Z,99.04
2023-01-03T05:54:25.820Z,99.10
2023-01-03T05:56:53.367Z,99.16
2023-01-03T05:59:22.604Z,99.71
2023-01-03T06:01:50.513Z,99.16
2023-01-03T06:04:20.506Z,99.58
2023-01-03T06:06:48.301Z,99.19
2023-01-03T06:09:15.959Z,100.00
2023-01-03T06:11:43.771Z,100.00
2023-01-03T06:14:11.585Z,99.79
2023-01-03T06:16:57.037Z,99.21
2023-01-03T06:19:26.392Z,99.22
2023-01-03T06:21:53.943Z,99.94
2023-01-03T06:24:21.495Z,99.34
2023-01-03T06:26:49.062Z,100.00
2023-01-03T06:29:16.855Z,99.90
2023-01-03T06:31:44.443Z,99.45
2023-01-03T06:34:12.060Z,100.00
2023-01-03T06:36:40.999Z,100.00
2023-01-03T06:39:08.712Z,100.00
2023-01-03T06:41:36.289Z,100.00
2023-01-03T06:44:03.850Z,100.00
2023-01-03T06:46:48.910Z,100.00
2023-01-03T06:49:35.899Z,100.00
2023-01-03T06:52:23.551Z,100.00
2023-01-03T06:54:51.315Z,100.00
2023-01-03T06:57:25.908Z,100.00
2023-01-03T06:59:54.809Z,100.00
2023-01-03T07:02:22.605Z,100.00
2023-01-03T07:04:50.343Z,100.00
2023-01-03T07:07:19.232Z,100.00
2023-01-03T07:09:46.756Z,100.00
2023-01-03T07:12:34.250Z,100.00
2023-01-03T07:15:01.814Z,100.00
2023-01-03T07:17:30.732Z,100.00
2023-01-03T07:19:58.290Z,98.91
2023-01-03T07:22:27.130Z,100.00
2023-01-03T07:24:54.737Z,99.10
2023-01-03T07:27:22.561Z,100.00
2023-01-03T07:29:50.312Z,99.90
2023-01-03T07:32:17.876Z,100.00
2023-01-03T07:34:45.450Z,99.70
2023-01-03T07:37:12.973Z,100.00
2023-01-03T07:39:41.869Z,99.57
2023-01-03T07:42:27.133Z,100.00
2023-01-03T07:44:55.602Z,100.00
2023-01-03T07:47:23.368Z,100.00
2023-01-03T07:49:50.881Z,100.00
2023-01-03T07:52:18.451Z,100.00
2023-01-03T07:54:47.365Z,100.00
2023-01-03T07:57:15.957Z,99.73
2023-01-03T07:59:43.474Z,99.11
2023-01-03T08:02:11.120Z,98.35
2023-01-03T08:04:38.827Z,99.04
2023-01-03T08:07:06.441Z,98.73
2023-01-03T08:09:51.566Z,99.43
2023-01-03T08:12:38.256Z,99.04
2023-01-03T08:15:06.938Z,99.07
2023-01-03T08:17:34.539Z,99.35
2023-01-03T08:20:02.091Z,99.12
2023-01-03T08:22:30.091Z,98.60
2023-01-03T08:24:57.696Z,98.32
2023-01-03T08:27:26.626Z,99.33
2023-01-03T08:29:54.216Z,99.55
2023-01-03T08:32:22.325Z,98.85
2023-01-03T08:34:50.869Z,97.72
2023-01-03T08:37:18.924Z,97.91
2023-01-03T08:39:51.820Z,97.36
2023-01-03T08:42:23.252Z,97.67
2023-01-03T08:44:57.934Z,97.43
2023-01-03T08:47:25.617Z,98.07
2023-01-03T08:49:53.220Z,97.24
2023-01-03T08:52:20.747Z,97.59
2023-01-03T08:54:48.298Z,97.10
2023-01-03T08:57:15.877Z,96.89
2023-01-03T08:59:43.402Z,97.50
2023-01-03T09:02:12.534Z,96.85
2023-01-03T09:04:40.242Z,97.03
2023-01-03T09:07:07.860Z,97.21
2023-01-03T09:09:35.534Z,96.61
2023-01-03T09:12:03.055Z,96.95
2023-01-03T09:14:31.045Z,96.51
2023-01-03T09:16:58.628Z,96.27
2023-01-03T09:19:27.612Z,96.62
2023-01-03T09:21:55.187Z,98.17
2023-01-03T09:24:22.780Z,97.89
2023-01-03T09:26:54.512Z,100.00
2023-01-03T09:29:22.765Z,97.55
2023-01-03T09:31:51.491Z,97.28
2023-01-03T09:34:19.551Z,97.04
2023-01-03T09:36:48.937Z,97.42
2023-01-03T09:39:16.472Z,97.05
2023-01-03T09:41:45.066Z,97.83
2023-01-03T09:44:12.881Z,97.04
2023-01-03T09:46:40.577Z,96.62
2023-01-03T09:49:08.290Z,96.00
2023-01-03T09:51:56.933Z,95.20
2023-01-03T09:54:48.378Z,92.41
2023-01-03T09:57:36.873Z,92.04
2023-01-03T10:00:29.421Z,91.26
2023-01-03T10:03:31.463Z,90.62
2023-01-03T10:06:13.679Z,88.61
2023-01-03T10:08:56.108Z,88.27
2023-01-03T10:11:36.909Z,87.15
2023-01-03T10:14:18.072Z,86.47
2023-01-03T10:16:56.848Z,84.70
2023-01-03T10:19:46.701Z,83.35
2023-01-03T10:22:18.937Z,81.71
2023-01-03T10:24:48.784Z,81.22
2023-01-03T10:27:21.541Z,80.16
2023-01-03T10:29:53.050Z,82.01
2023-01-03T10:32:37.829Z,81.07
2023-01-03T10:35:29.000Z,78.48
2023-01-03T10:37:57.840Z,77.98
2023-01-03T10:40:34.490Z,74.45
2023-01-03T10:43:10.861Z,69.88
2023-01-03T10:45:52.649Z,73.10
2023-01-03T10:48:20.250Z,70.24
2023-01-03T10:50:48.087Z,66.42
2023-01-03T10:53:20.841Z,64.39
2023-01-03T10:55:51.587Z,63.05
2023-01-03T10:58:28.066Z,62.75
2023-01-03T11:01:12.308Z,60.45
2023-01-03T11:03:51.036Z,59.72
2023-01-03T11:06:19.187Z,58.65
2023-01-03T11:08:48.872Z,58.11
2023-01-03T11:11:29.711Z,55.62
2023-01-03T11:14:19.838Z,54.21
2023-01-03T11:16:55.217Z,52.92
2023-01-03T11:19:27.891Z,51.32
2023-01-03T11:22:01.887Z,52.46
2023-01-03T11:24:57.705Z,51.39
2023-01-03T11:27:41.123Z,50.03
2023-01-03T11:30:25.168Z,48.89
2023-01-03T11:33:10.017Z,51.61
2023-01-03T11:36:09.535Z,51.58
2023-01-03T11:38:52.908Z,49.13
2023-01-03T11:41:36.761Z,49.73
2023-01-03T11:44:33.607Z,48.67
2023-01-03T11:47:16.913Z,49.15
2023-01-03T11:50:00.086Z,47.59
2023-01-03T11:52:31.138Z,47.47
2023-01-03T11:55:37.727Z,48.53
2023-01-03T11:58:23.610Z,49.17
2023-01-03T12:00:58.863Z,47.38
2023-01-03T12:03:44.499Z,47.31
2023-01-03T12:06:20.551Z,47.49
2023-01-03T12:09:07.276Z,47.28
2023-01-03T12:11:55.135Z,47.90
2023-01-03T12:14:25.161Z,46.18
2023-01-03T12:16:57.591Z,45.09
2023-01-03T12:19:37.925Z,44.09
2023-01-03T12:22:14.112Z,43.71
2023-01-03T12:24:49.508Z,44.90
2023-01-03T12:27:23.967Z,45.91
2023-01-03T12:29:57.327Z,44.60
2023-01-03T12:32:30.026Z,46.22
2023-01-03T12:35:17.825Z,45.93
2023-01-03T12:37:48.006Z,44.08
2023-01-03T12:40:22.487Z,46.20
2023-01-03T12:42:58.830Z,47.85
2023-01-03T12:45:41.720Z,48.32
2023-01-03T12:48:22.420Z,46.59
2023-01-03T12:50:54.485Z,46.14
2023-01-03T12:53:28.739Z,47.49
2023-01-03T12:56:22.882Z,48.21
2023-01-03T12:59:04.043Z,47.50
2023-01-03T13:01:40.749Z,48.14
2023-01-03T13:04:22.640Z,48.64
2023-01-03T13:06:56.753Z,48.11
2023-01-03T13:09:32.139Z,46.41
2023-01-03T13:12:04.542Z,48.67
2023-01-03T13:14:53.259Z,46.39
2023-01-03T13:17:22.674Z,47.92
2023-01-03T13:19:56.153Z,49.90
2023-01-03T13:22:34.292Z,49.38
2023-01-03T13:25:46.731Z,49.77
2023-01-03T13:28:31.663Z,48.26
2023-01-03T13:31:48.028Z,48.46
2023-01-03T13:34:34.016Z,47.41
2023-01-03T13:37:18.820Z,45.90
2023-01-03T13:40:10.955Z,45.58
2023-01-03T13:42:40.183Z,47.00
2023-01-03T13:45:56.673Z,47.34
2023-01-03T13:48:27.210Z,47.59
2023-01-03T13:51:29.330Z,47.79
2023-01-03T13:54:00.345Z,48.21
2023-01-03T13:56:32.244Z,47.82
2023-01-03T13:59:12.157Z,47.18
2023-01-03T14:01:51.964Z,47.69
2023-01-03T14:04:36.145Z,47.96
2023-01-03T14:07:27.844Z,48.47
2023-01-03T14:10:25.319Z,48.18
2023-01-03T14:13:27.064Z,48.07
2023-01-03T14:16:12.108Z,48.45
2023-01-03T14:18:40.825Z,47.96
2023-01-03T14:21:15.625Z,47.40
2023-01-03T14:23:59.524Z,47.29
2023-01-03T14:26:28.679Z,47.64
2023-01-03T14:28:57.562Z,48.53
2023-01-03T14:31:28.175Z,49.28
2023-01-03T14:33:58.625Z,49.70
2023-01-03T14:36:26.698Z,50.46
2023-01-03T14:38:56.181Z,50.84
2023-01-03T14:41:30.370Z,51.02
2023-01-03T14:44:04.605Z,51.89
2023-01-03T14:46:32.980Z,52.37
2023-01-03T14:49:04.145Z,53.61
2023-01-03T14:51:34.276Z,54.85
2023-01-03T14:54:02.939Z,56.09
2023-01-03T14:56:31.411Z,57.54
2023-01-03T14:58:59.865Z,58.55
2023-01-03T15:01:30.063Z,59.17
2023-01-03T15:03:58.378Z,59.05
2023-01-03T15:06:28.420Z,60.77
2023-01-03T15:08:57.627Z,60.90
2023-01-03T15:11:31.033Z,61.39
2023-01-03T15:14:00.025Z,61.94
2023-01-03T15:16:33.484Z,62.49
2023-01-03T15:19:07.533Z,63.52
2023-01-03T15:21:35.205Z,63.87
2023-01-03T15:24:02.980Z,65.05
2023-01-03T15:26:39.999Z,65.22
2023-01-03T15:29:13.471Z,66.02
2023-01-03T15:31:49.129Z,66.87
2023-01-03T15:34:19.020Z,67.90
2023-01-03T15:36:52.748Z,67.67
2023-01-03T15:39:22.629Z,68.85
2023-01-03T15:42:42.836Z,69.01
2023-01-03T15:45:01.250Z,69.76
2023-01-03T15:47:32.208Z,71.12
2023-01-03T15:50:04.408Z,72.00
2023-01-03T15:52:31.947Z,73.39
2023-01-03T15:54:59.519Z,74.33
2023-01-03T15:57:31.380Z,74.64
2023-01-03T16:00:02.076Z,75.56
2023-01-03T16:02:33.692Z,76.36
2023-01-03T16:05:01.421Z,78.02
2023-01-03T16:07:28.979Z,78.09
2023-01-03T16:09:56.807Z,77.29
2023-01-03T16:12:33.339Z,78.01
2023-01-03T16:15:01.692Z,78.55
2023-01-03T16:17:30.367Z,79.20
2023-01-03T16:20:00.561Z,79.64
2023-01-03T16:22:35.398Z,80.72
2023-01-03T16:25:03.811Z,80.65
2023-01-03T16:27:31.387Z,80.40
2023-01-03T16:29:59.190Z,81.12
2023-01-03T16:32:29.368Z,82.71
2023-01-03T16:35:00.642Z,83.84
2023-01-03T16:37:28.824Z,83.97
2023-01-03T16:39:56.446Z,86.36
2023-01-03T16:42:27.735Z,86.95
2023-01-03T16:44:55.914Z,85.29
2023-01-03T16:47:26.049Z,84.70
2023-01-03T16:49:57.519Z,84.59
2023-01-03T16:52:33.224Z,84.77
2023-01-03T16:55:05.155Z,85.46
2023-01-03T16:57:33.239Z,85.53
2023-01-03T17:00:00.766Z,85.80
2023-01-03T17:02:28.544Z,86.19
2023-01-03T17:04:56.283Z,86.98
2023-01-03T17:07:26.271Z,87.18
2023-01-03T17:09:53.917Z,88.26
2023-01-03T17:12:24.680Z,88.23
2023-01-03T17:14:52.809Z,89.23
2023-01-03T17:17:22.980Z,89.55
2023-01-03T17:20:06.908Z,89.92
2023-01-03T17:22:36.145Z,90.57
2023-01-03T17:25:03.889Z,90.49
2023-01-03T17:27:33.417Z,91.01
2023-01-03T17:30:03.422Z,91.29
2023-01-03T17:32:31.435Z,90.55
2023-01-03T17:34:59.168Z,90.88
2023-01-03T17:37:26.938Z,91.20
2023-01-03T17:39:58.077Z,91.37
2023-01-03T17:42:28.677Z,91.74
2023-01-03T17:45:14.044Z,91.23
2023-01-03T17:48:00.779Z,91.83
2023-01-03T17:50:29.800Z,91.85
2023-01-03T17:52:58.528Z,92.09
2023-01-03T17:55:29.462Z,92.21
2023-01-03T17:58:00.463Z,92.30
2023-01-03T18:00:30.535Z,92.41
2023-01-03T18:03:00.222Z,92.65
2023-01-03T18:05:29.783Z,91.71
2023-01-03T18:07:59.307Z,91.86
2023-01-03T18:10:33.831Z,92.32
2023-01-03T18:13:01.604Z,92.28
2023-01-03T18:15:29.307Z,92.65
2023-01-03T18:17:56.924Z,91.88
2023-01-03T18:20:26.481Z,91.08
2023-01-03T18:22:54.250Z,92.42
2023-01-03T18:25:24.645Z,94.04
2023-01-03T18:27:57.350Z,91.52
2023-01-03T18:30:25.117Z,91.64
2023-01-03T18:32:52.807Z,91.83
2023-01-03T18:35:28.294Z,91.78
2023-01-03T18:38:00.585Z,90.79
2023-01-03T18:40:28.275Z,90.76
2023-01-03T18:43:12.675Z,90.73
2023-01-03T18:45:41.723Z,91.28
2023-01-03T18:48:14.415Z,91.22
2023-01-03T18:50:42.468Z,91.39
2023-01-03T18:53:16.261Z,93.05
2023-01-03T18:55:44.111Z,96.07
2023-01-03T18:58:21.688Z,92.78
2023-01-03T19:00:49.284Z,92.83
2023-01-03T19:03:23.439Z,92.20
2023-01-03T19:05:51.545Z,94.54
2023-01-03T19:08:20.533Z,93.57
2023-01-03T19:10:48.452Z,92.32
2023-01-03T19:13:31.150Z,92.97
2023-01-03T19:15:58.918Z,93.66
2023-01-03T19:18:26.552Z,92.92
2023-01-03T19:20:54.217Z,94.24
2023-01-03T19:23:24.725Z,93.88
2023-01-03T19:25:52.506Z,94.54
2023-01-03T19:28:23.757Z,94.53
2023-01-03T19:30:52.999Z,94.20
2023-01-03T19:33:21.644Z,93.88
2023-01-03T19:35:50.133Z,93.85
2023-01-03T19:38:17.787Z,94.99
2023-01-03T19:40:46.154Z,94.46
2023-01-03T19:43:21.889Z,95.03
2023-01-03T19:45:50.100Z,95.29
2023-01-03T19:48:20.666Z,94.77
2023-01-03T19:50:49.585Z,95.93
2023-01-03T19:53:17.203Z,95.90
2023-01-03T19:55:47.467Z,96.19
2023-01-03T19:58:18.614Z,95.70
2023-01-03T20:00:47.955Z,95.51
2023-01-03T20:03:24.065Z,96.50
2023-01-03T20:05:51.880Z,96.60
2023-01-03T20:08:19.584Z,96.70
2023-01-03T20:10:47.326Z,95.60
2023-01-03T20:13:18.929Z,96.24
2023-01-03T20:15:48.223Z,96.23
2023-01-03T20:18:36.382Z,95.88
2023-01-03T20:21:07.866Z,95.60
2023-01-03T20:23:38.848Z,96.21
2023-01-03T20:26:07.312Z,95.21
2023-01-03T20:28:34.850Z,95.49
2023-01-03T20:31:03.738Z,96.35
2023-01-03T20:33:31.480Z,96.39
2023-01-03T20:36:11.620Z,96.03
2023-01-03T20:38:45.491Z,96.02
2023-01-03T20:41:15.454Z,95.87
2023-01-03T20:43:43.549Z,96.56
2023-01-03T20:46:17.480Z,96.51
2023-01-03T20:48:45.727Z,96.39
2023-01-03T20:51:14.672Z,96.17
2023-01-03T20:53:43.442Z,96.04
2023-01-03T20:56:13.191Z,96.04
2023-01-03T20:58:41.269Z,95.42
2023-01-03T21:01:09.265Z,95.44
2023-01-03T21:03:38.956Z,96.52
2023-01-03T21:06:18.605Z,96.03
2023-01-03T21:08:54.269Z,96.16
2023-01-03T21:11:25.510Z,96.40
2023-01-03T21:13:53.836Z,95.44
2023-01-03T21:16:29.744Z,95.66
2023-01-03T21:19:01.661Z,96.08
2023-01-03T21:21:31.875Z,96.32
2023-01-03T21:23:59.833Z,96.31
2023-01-03T21:26:27.428Z,96.21
2023-01-03T21:28:55.205Z,96.23
2023-01-03T21:31:23.999Z,95.82
2023-01-03T21:33:51.978Z,96.11
2023-01-03T21:36:24.329Z,95.48
2023-01-03T21:38:53.520Z,95.97
2023-01-03T21:41:22.900Z,95.31
2023-01-03T21:43:50.717Z,95.32
2023-01-03T21:46:20.808Z,95.72
2023-01-03T21:48:48.573Z,95.85
2023-01-03T21:51:24.722Z,96.15
2023-01-03T21:54:02.355Z,95.42
2023-01-03T21:56:29.946Z,95.83
2023-01-03T21:58:57.534Z,96.85
2023-01-03T22:01:25.703Z,96.57
2023-01-03T22:04:10.843Z,97.19
2023-01-03T22:06:39.349Z,96.69
2023-01-03T22:09:28.239Z,96.84
2023-01-03T22:11:55.815Z,97.20
2023-01-03T22:14:23.371Z,97.33
2023-01-03T22:16:51.114Z,96.89
2023-01-03T22:19:18.682Z,96.71
2023-01-03T22:21:46.215Z,97.25
2023-01-03T22:24:15.168Z,96.51
2023-01-03T22:26:42.761Z,96.82
2023-01-03T22:29:10.396Z,98.17
2023-01-03T22:31:38.107Z,97.50
2023-01-03T22:34:05.719Z,96.72
2023-01-03T22:36:33.255Z,96.73
2023-01-03T22:39:00.831Z,96.78
2023-01-03T22:41:30.153Z,97.41
2023-01-03T22:43:57.823Z,96.86
2023-01-03T22:46:25.645Z,97.89
2023-01-03T22:48:53.669Z,96.10
2023-01-03T22:51:21.762Z,96.98
2023-01-03T22:53:49.321Z,95.89
2023-01-03T22:56:18.401Z,96.37
2023-01-03T22:58:47.409Z,97.36
2023-01-03T23:01:18.039Z,96.29
2023-01-03T23:03:47.196Z,96.41
2023-01-03T23:06:17.603Z,96.12
2023-01-03T23:08:47.405Z,95.81
2023-01-03T23:11:34.932Z,95.07
2023-01-03T23:14:07.355Z,95.43
2023-01-03T23:16:35.547Z,96.37
2023-01-03T23:19:04.872Z,95.91
2023-01-03T23:21:33.162Z,95.90
2023-01-03T23:24:00.819Z,95.34
2023-01-03T23:26:28.454Z,95.32
2023-01-03T23:28:56.559Z,95.33
2023-01-03T23:31:27.166Z,95.43
2023-01-03T23:33:55.145Z,95.34
2023-01-03T23:36:22.788Z,95.62
2023-01-03T23:38:50.442Z,96.20
2023-01-03T23:41:19.659Z,96.03
2023-01-03T23:43:47.495Z,96.70
2023-01-03T23:46:19.947Z,95.91
2023-01-03T23:48:49.762Z,96.00
2023-01-03T23:51:17.471Z,96.16
2023-01-03T23:53:45.087Z,97.49
2023-01-03T23:56:14.741Z,97.54
2023-01-03T23:58:42.595Z,97.36
